Sidney, Illinois
Current Conditions -  °F | °C
As of 2:53 AM on Saturday 25 Oct 2014 (Local Time) from KCMI Reporting Station
Few Clouds Few Clouds  
Wind Chill: 54°   Ceiling: Unl
Heat Index: 54°   Visibility: 8mi
Dew Point: 52°   Wind: 6mph
Humidity: 93%   Direction: 230°SW
Pressure: 29.95"   Gusts: NA
Location:  40.03°N, 88.07°W
Report Text: KCMI 250753Z AUTO 23005KT 8SM FEW050 12/11 A2995 RMK AO2 SLP142 T01220111 $
Loading
Personal Weather Stations






























Interactive Weather Map
Tropical Storm Tracking
New forecast layout! Learn more

10-Day Weather Forecast

Advertisements
Track Severe Weather on mobile